createdAt,value
2019-03-24T00:00:45.931Z,81.51
2019-03-24T00:01:45.922Z,81.92
2019-03-24T00:02:45.907Z,82.43
2019-03-24T00:03:45.901Z,82.54
2019-03-24T00:04:45.895Z,82.43
2019-03-24T00:05:45.872Z,82.54
2019-03-24T00:06:45.863Z,82.57
2019-03-24T00:07:45.855Z,82.33
2019-03-24T00:08:45.967Z,82.75
2019-03-24T00:09:45.850Z,82.17
2019-03-24T00:10:45.818Z,81.51
2019-03-24T00:11:45.817Z,81.76
2019-03-24T00:12:45.796Z,81.96
2019-03-24T00:13:45.786Z,82.17
2019-03-24T00:14:45.787Z,82.06
2019-03-24T00:15:45.781Z,81.86
2019-03-24T00:16:45.757Z,81.65
2019-03-24T00:17:45.743Z,81.65
2019-03-24T00:18:45.740Z,81.45
2019-03-24T00:19:45.731Z,81.48
2019-03-24T00:20:45.721Z,81.69
2019-03-24T00:21:45.706Z,81.59
2019-03-24T00:22:45.689Z,81.28
2019-03-24T00:23:45.676Z,80.87
2019-03-24T00:24:45.686Z,81.38
2019-03-24T00:25:45.691Z,81.28
2019-03-24T00:26:45.647Z,81.38
2019-03-24T00:27:45.641Z,81.48
2019-03-24T00:28:45.628Z,80.97
2019-03-24T00:29:45.618Z,81.38
2019-03-24T00:30:45.627Z,81.28
2019-03-24T00:31:45.598Z,80.66
2019-03-24T00:32:45.581Z,80.66
2019-03-24T00:33:45.575Z,80.66
2019-03-24T00:34:45.562Z,80.77
2019-03-24T00:35:45.549Z,80.15
2019-03-24T00:36:45.548Z,80.25
2019-03-24T00:37:45.523Z,79.84
2019-03-24T00:38:45.515Z,79.94
2019-03-24T00:39:46.060Z,79.84
2019-03-24T00:40:45.492Z,79.53
2019-03-24T00:41:45.509Z,79.22
2019-03-24T00:42:45.467Z,79.12
2019-03-24T00:43:45.458Z,79.53
2019-03-24T00:44:45.449Z,79.63
2019-03-24T00:45:45.434Z,79.33
2019-03-24T00:46:45.427Z,79.02
2019-03-24T00:47:45.424Z,79.12
2019-03-24T00:48:45.403Z,78.50
2019-03-24T00:49:45.416Z,78.81
2019-03-24T00:50:45.378Z,78.30
2019-03-24T00:51:45.369Z,77.68
2019-03-24T00:52:45.375Z,76.55
2019-03-24T00:53:45.351Z,77.06
2019-03-24T00:54:45.340Z,77.13
2019-03-24T00:55:45.336Z,76.93
2019-03-24T00:56:45.318Z,77.27
2019-03-24T00:57:45.311Z,77.06
2019-03-24T00:58:45.298Z,76.35
2019-03-24T00:59:45.286Z,76.65
2019-03-24T01:00:45.270Z,76.14
2019-03-24T01:01:45.264Z,76.28
2019-03-24T01:02:45.263Z,76.35
2019-03-24T01:03:45.247Z,76.35
2019-03-24T01:04:45.241Z,76.35
2019-03-24T01:05:45.220Z,76.65
2019-03-24T01:06:45.215Z,76.76
2019-03-24T01:07:45.198Z,76.35
2019-03-24T01:08:45.234Z,76.25
2019-03-24T01:09:45.172Z,76.35
2019-03-24T01:10:45.161Z,76.14
2019-03-24T01:11:45.156Z,75.83
2019-03-24T01:12:45.152Z,76.04
2019-03-24T01:13:45.128Z,74.80
2019-03-24T01:14:45.128Z,75.52
2019-03-24T01:15:48.036Z,75.12
2019-03-24T01:16:45.099Z,75.21
2019-03-24T01:17:45.085Z,75.46
2019-03-24T01:18:45.079Z,75.15
2019-03-24T01:19:45.106Z,75.56
2019-03-24T01:20:45.050Z,76.48
2019-03-24T01:21:45.038Z,76.90
2019-03-24T01:22:45.042Z,76.18
2019-03-24T01:23:45.020Z,76.18
2019-03-24T01:24:45.051Z,76.48
2019-03-24T01:25:45.001Z,76.07
2019-03-24T01:26:44.988Z,76.79
2019-03-24T01:27:44.981Z,77.00
2019-03-24T01:28:44.966Z,76.90
2019-03-24T01:29:44.958Z,76.62
2019-03-24T01:30:44.958Z,76.69
2019-03-24T01:31:44.935Z,77.14
2019-03-24T01:32:44.921Z,76.62
2019-03-24T01:33:44.912Z,77.14
2019-03-24T01:34:44.896Z,76.52
2019-03-24T01:35:44.895Z,76.01
2019-03-24T01:36:44.875Z,76.11
2019-03-24T01:37:44.868Z,76.11
2019-03-24T01:38:44.860Z,75.90
2019-03-24T01:39:44.844Z,76.62
2019-03-24T01:40:44.852Z,76.73
2019-03-24T01:41:44.823Z,76.83
2019-03-24T01:42:44.811Z,76.31
2019-03-24T01:43:44.828Z,76.59
2019-03-24T01:44:44.789Z,76.01
2019-03-24T01:45:44.792Z,76.01
2019-03-24T01:46:44.833Z,76.83
2019-03-24T01:47:44.753Z,75.87
2019-03-24T01:48:44.743Z,76.11
2019-03-24T01:49:44.759Z,76.42
2019-03-24T01:50:44.740Z,76.21
2019-03-24T01:51:44.758Z,76.52
2019-03-24T01:52:44.701Z,76.83
2019-03-24T01:53:44.684Z,76.93
2019-03-24T01:54:44.702Z,77.07
2019-03-24T01:55:44.669Z,76.97
2019-03-24T01:56:44.694Z,77.48
2019-03-24T01:57:44.642Z,78.14
2019-03-24T01:58:44.652Z,77.79
2019-03-24T01:59:44.619Z,78.72
2019-03-24T02:00:44.618Z,77.72
2019-03-24T02:01:44.607Z,78.65
2019-03-24T02:02:44.603Z,78.79
2019-03-24T02:03:44.580Z,79.27
2019-03-24T02:04:44.566Z,79.06
2019-03-24T02:05:44.553Z,79.06
2019-03-24T02:06:44.543Z,79.30
2019-03-24T02:07:44.583Z,78.44
2019-03-24T02:08:44.532Z,78.75
2019-03-24T02:09:44.519Z,79.16
2019-03-24T02:10:44.500Z,78.58
2019-03-24T02:11:44.487Z,78.79
2019-03-24T02:12:44.500Z,78.69
2019-03-24T02:13:44.509Z,78.86
2019-03-24T02:14:44.462Z,77.72
2019-03-24T02:15:44.449Z,77.93
2019-03-24T02:16:44.440Z,78.14
2019-03-24T02:17:44.474Z,78.03
2019-03-24T02:18:44.447Z,78.17
2019-03-24T02:19:44.404Z,77.97
2019-03-24T02:20:44.396Z,77.51
2019-03-24T02:21:44.383Z,77.62
2019-03-24T02:22:44.447Z,77.76
2019-03-24T02:23:44.363Z,77.14
2019-03-24T02:24:44.384Z,77.14
2019-03-24T02:25:44.335Z,77.66
2019-03-24T02:26:44.369Z,76.83
2019-03-24T02:27:44.319Z,77.35
2019-03-24T02:28:44.314Z,76.83
2019-03-24T02:29:44.297Z,77.14
2019-03-24T02:30:44.299Z,77.14
2019-03-24T02:31:44.287Z,77.35
2019-03-24T02:32:44.337Z,76.83
2019-03-24T02:33:44.291Z,76.73
2019-03-24T02:34:44.423Z,76.73
2019-03-24T02:35:44.295Z,76.83
2019-03-24T02:36:44.226Z,77.04
2019-03-24T02:37:44.224Z,77.08
2019-03-24T02:38:44.210Z,76.97
2019-03-24T02:39:44.182Z,76.63
2019-03-24T02:40:44.242Z,76.53
2019-03-24T02:41:44.168Z,76.46
2019-03-24T02:42:44.273Z,76.76
2019-03-24T02:43:44.145Z,76.76
2019-03-24T02:44:44.152Z,76.56
2019-03-24T02:45:44.120Z,76.66
2019-03-24T02:46:44.109Z,76.46
2019-03-24T02:47:44.119Z,76.04
2019-03-24T02:48:44.140Z,76.15
2019-03-24T02:49:44.078Z,75.43
2019-03-24T02:50:44.065Z,75.32
2019-03-24T02:51:44.059Z,75.32
2019-03-24T02:52:44.052Z,75.22
2019-03-24T02:53:44.049Z,75.53
2019-03-24T02:54:44.028Z,75.32
2019-03-24T02:55:44.016Z,75.53
2019-03-24T02:56:44.009Z,75.53
2019-03-24T02:57:44.000Z,75.36
2019-03-24T02:58:44.020Z,75.26
2019-03-24T02:59:43.967Z,75.67
2019-03-24T03:00:43.958Z,75.46
2019-03-24T03:01:43.956Z,75.26
2019-03-24T03:02:43.937Z,75.36
2019-03-24T03:03:43.934Z,75.29
2019-03-24T03:04:43.971Z,75.36
2019-03-24T03:05:43.906Z,75.29
2019-03-24T03:06:43.895Z,75.81
2019-03-24T03:07:43.890Z,76.21
2019-03-24T03:08:43.881Z,76.32
2019-03-24T03:09:43.895Z,76.32
2019-03-24T03:10:43.852Z,76.21
2019-03-24T03:11:43.840Z,76.21
2019-03-24T03:12:43.824Z,75.39
2019-03-24T03:13:43.815Z,75.60
2019-03-24T03:14:43.809Z,75.39
2019-03-24T03:15:43.809Z,75.36
2019-03-24T03:16:43.787Z,75.05
2019-03-24T03:17:43.773Z,74.74
2019-03-24T03:18:43.773Z,75.09
2019-03-24T03:19:43.805Z,75.60
2019-03-24T03:20:43.739Z,75.70
2019-03-24T03:21:43.730Z,75.60
2019-03-24T03:22:43.717Z,75.29
2019-03-24T03:23:43.709Z,75.49
2019-03-24T03:24:43.748Z,75.29
2019-03-24T03:25:43.683Z,75.70
2019-03-24T03:26:43.681Z,75.49
2019-03-24T03:27:43.665Z,75.39
2019-03-24T03:28:43.653Z,75.70
2019-03-24T03:29:43.642Z,75.09
2019-03-24T03:30:43.638Z,75.22
2019-03-24T03:31:43.630Z,75.12
2019-03-24T03:32:43.612Z,75.43
2019-03-24T03:33:43.605Z,75.74
2019-03-24T03:34:43.588Z,75.53
2019-03-24T03:35:43.653Z,75.53
2019-03-24T03:36:43.613Z,75.74
2019-03-24T03:37:43.556Z,75.43
2019-03-24T03:38:43.573Z,75.63
2019-03-24T03:39:43.535Z,75.43
2019-03-24T03:40:43.544Z,75.53
2019-03-24T03:41:43.563Z,75.43
2019-03-24T03:42:43.511Z,75.63
2019-03-24T03:43:43.494Z,75.74
2019-03-24T03:44:43.491Z,75.53
2019-03-24T03:45:43.465Z,75.43
2019-03-24T03:46:52.400Z,75.53
2019-03-24T03:47:44.486Z,75.53
2019-03-24T03:48:43.443Z,75.43
2019-03-24T03:49:43.480Z,75.63
2019-03-24T03:50:43.410Z,75.43
2019-03-24T03:51:43.408Z,75.53
2019-03-24T03:52:43.403Z,75.53
2019-03-24T03:53:43.382Z,75.63
2019-03-24T03:54:43.378Z,75.53
2019-03-24T03:55:43.373Z,75.53
2019-03-24T03:56:43.350Z,75.53
2019-03-24T03:57:43.368Z,75.43
2019-03-24T03:58:43.331Z,75.53
2019-03-24T03:59:43.323Z,75.84
2019-03-24T04:01:34.698Z,75.74
2019-03-24T04:02:34.675Z,74.91
2019-03-24T04:03:34.662Z,74.91
2019-03-24T04:04:34.646Z,74.91
2019-03-24T04:05:34.653Z,74.91
2019-03-24T04:06:34.632Z,75.01
2019-03-24T04:07:34.711Z,75.22
2019-03-24T04:08:34.601Z,75.32
2019-03-24T04:09:34.594Z,75.22
2019-03-24T04:10:34.587Z,75.32
2019-03-24T04:11:34.564Z,74.91
2019-03-24T04:12:34.559Z,75.22
2019-03-24T04:13:34.612Z,75.26
2019-03-24T04:14:34.534Z,75.53
2019-03-24T04:15:34.547Z,75.46
2019-03-24T04:16:34.515Z,75.67
2019-03-24T04:17:34.496Z,75.67
2019-03-24T04:18:34.493Z,75.74
2019-03-24T04:19:34.526Z,75.57
2019-03-24T04:20:34.467Z,75.57
2019-03-24T04:21:34.523Z,75.22
2019-03-24T04:22:34.452Z,75.46
2019-03-24T04:23:34.436Z,75.12
2019-03-24T04:24:34.487Z,75.57
2019-03-24T04:25:34.430Z,75.95
2019-03-24T04:26:34.398Z,76.50
2019-03-24T04:27:34.400Z,76.50
2019-03-24T04:28:34.373Z,75.67
2019-03-24T04:29:34.368Z,76.70
2019-03-24T04:30:34.387Z,77.18
2019-03-24T04:31:34.360Z,77.18
2019-03-24T04:32:34.419Z,76.60
2019-03-24T04:33:34.329Z,76.35
2019-03-24T04:34:34.308Z,76.70
2019-03-24T04:35:34.297Z,76.77
2019-03-24T04:36:34.289Z,76.50
2019-03-24T04:37:34.294Z,76.90
2019-03-24T04:38:34.296Z,76.81
2019-03-24T04:39:34.258Z,76.39
2019-03-24T04:40:34.240Z,76.70
2019-03-24T04:41:34.282Z,76.50
2019-03-24T04:42:34.218Z,76.32
2019-03-24T04:43:34.216Z,76.90
2019-03-24T04:44:34.203Z,77.01
2019-03-24T04:45:34.188Z,77.46
2019-03-24T04:46:34.243Z,77.36
2019-03-24T04:47:34.162Z,77.46
2019-03-24T04:48:34.155Z,77.46
2019-03-24T04:49:34.154Z,77.67
2019-03-24T04:50:34.134Z,77.46
2019-03-24T04:51:34.125Z,77.36
2019-03-24T04:52:34.157Z,77.32
2019-03-24T04:53:34.100Z,77.36
2019-03-24T04:54:34.094Z,77.22
2019-03-24T04:55:34.126Z,77.46
2019-03-24T04:56:34.065Z,77.56
2019-03-24T04:57:34.050Z,77.56
2019-03-24T04:58:34.045Z,77.32
2019-03-24T04:59:34.031Z,77.56
2019-03-24T05:00:34.049Z,77.46
2019-03-24T05:01:34.006Z,77.36
2019-03-24T05:02:34.002Z,77.67
2019-03-24T05:03:33.986Z,77.36
2019-03-24T05:04:33.983Z,77.15
2019-03-24T05:05:33.964Z,77.25
2019-03-24T05:06:34.021Z,77.46
2019-03-24T05:07:33.941Z,76.73
2019-03-24T05:08:33.930Z,77.36
2019-03-24T05:09:33.922Z,77.77
2019-03-24T05:10:33.908Z,77.77
2019-03-24T05:11:33.947Z,78.39
2019-03-24T05:12:33.888Z,78.28
2019-03-24T05:13:33.876Z,78.18
2019-03-24T05:14:33.863Z,78.08
2019-03-24T05:15:33.850Z,78.22
2019-03-24T05:16:33.890Z,78.18
2019-03-24T05:17:33.879Z,77.70
2019-03-24T05:18:33.823Z,78.08
2019-03-24T05:19:33.815Z,78.53
2019-03-24T05:20:33.802Z,78.18
2019-03-24T05:21:33.818Z,78.39
2019-03-24T05:22:33.838Z,78.39
2019-03-24T05:23:33.768Z,78.11
2019-03-24T05:24:33.757Z,77.56
2019-03-24T05:25:33.743Z,77.08
2019-03-24T05:26:33.728Z,77.67
2019-03-24T05:27:33.726Z,77.56
2019-03-24T05:28:33.760Z,77.56
2019-03-24T05:29:33.693Z,77.36
2019-03-24T05:30:33.687Z,77.36
2019-03-24T05:31:33.676Z,77.36
2019-03-24T05:32:33.660Z,77.81
2019-03-24T05:33:33.716Z,77.70
2019-03-24T05:34:33.651Z,77.36
2019-03-24T05:35:33.635Z,77.56
2019-03-24T05:36:33.617Z,77.67
2019-03-24T05:37:33.611Z,77.77
2019-03-24T05:38:33.594Z,77.29
2019-03-24T05:39:33.600Z,77.56
2019-03-24T05:40:33.572Z,77.19
2019-03-24T05:41:33.571Z,76.94
2019-03-24T05:42:33.552Z,77.15
2019-03-24T05:43:33.537Z,77.29
2019-03-24T05:44:33.595Z,77.39
2019-03-24T05:45:33.520Z,77.50
2019-03-24T05:46:33.504Z,77.70
2019-03-24T05:47:37.303Z,77.46
2019-03-24T05:48:33.485Z,77.70
2019-03-24T05:49:33.526Z,77.60
2019-03-24T05:50:33.465Z,77.46
2019-03-24T05:51:33.448Z,77.46
2019-03-24T05:52:33.440Z,77.60
2019-03-24T05:53:33.443Z,77.70
2019-03-24T05:54:33.492Z,77.39
2019-03-24T05:55:33.414Z,77.29
2019-03-24T05:56:33.400Z,77.50
2019-03-24T05:57:33.391Z,77.29
2019-03-24T05:58:33.374Z,77.19
2019-03-24T05:59:33.367Z,77.39
2019-03-24T06:00:33.415Z,77.29
2019-03-24T06:01:33.338Z,77.04
2019-03-24T06:02:33.331Z,77.19
2019-03-24T06:03:33.322Z,77.60
2019-03-24T06:04:33.315Z,77.50
2019-03-24T06:05:33.341Z,77.39
2019-03-24T06:06:33.351Z,77.50
2019-03-24T06:07:33.269Z,77.36
2019-03-24T06:08:33.259Z,77.70
2019-03-24T06:09:33.248Z,77.46
2019-03-24T06:10:33.241Z,76.94
2019-03-24T06:11:33.277Z,77.56
2019-03-24T06:12:33.214Z,77.56
2019-03-24T06:13:33.223Z,77.36
2019-03-24T06:14:33.198Z,77.36
2019-03-24T06:15:33.189Z,77.25
2019-03-24T06:16:33.190Z,77.19
2019-03-24T06:17:33.174Z,77.25
2019-03-24T06:18:33.157Z,76.43
2019-03-24T06:19:33.136Z,76.94
2019-03-24T06:20:33.129Z,77.04
2019-03-24T06:21:33.146Z,77.36
2019-03-24T06:22:33.103Z,76.53
2019-03-24T06:23:33.092Z,77.04
2019-03-24T06:24:33.085Z,77.15
2019-03-24T06:25:34.934Z,76.32
2019-03-24T06:26:33.073Z,76.29
2019-03-24T06:27:33.056Z,76.22
2019-03-24T06:28:33.036Z,75.36
2019-03-24T06:29:33.029Z,75.46
2019-03-24T06:30:33.031Z,75.57
2019-03-24T06:31:33.052Z,75.46
2019-03-24T06:32:32.996Z,75.46
2019-03-24T06:33:33.033Z,75.22
2019-03-24T06:34:32.973Z,75.12
2019-03-24T06:35:32.962Z,74.81
2019-03-24T06:36:32.946Z,74.81
2019-03-24T06:37:32.936Z,74.88
2019-03-24T06:38:33.015Z,73.95
2019-03-24T06:39:32.917Z,73.95
2019-03-24T06:40:32.911Z,73.43
2019-03-24T06:41:32.894Z,72.88
2019-03-24T06:42:32.886Z,73.02
2019-03-24T06:43:32.908Z,72.81
2019-03-24T06:44:32.863Z,73.30
2019-03-24T06:45:32.851Z,72.88
2019-03-24T06:46:32.848Z,73.19
2019-03-24T06:47:32.827Z,72.96
2019-03-24T06:48:32.887Z,72.06
2019-03-24T06:49:32.804Z,72.16
2019-03-24T06:50:32.793Z,72.23
2019-03-24T06:51:32.817Z,72.44
2019-03-24T06:52:32.779Z,72.13
2019-03-24T06:53:32.770Z,71.61
2019-03-24T06:54:53.750Z,71.72
2019-03-24T06:55:32.736Z,70.68
2019-03-24T06:56:32.734Z,70.17
2019-03-24T06:57:32.714Z,70.28
2019-03-24T06:58:32.709Z,70.68
2019-03-24T06:59:32.762Z,70.89
2019-03-24T07:00:32.685Z,71.30
2019-03-24T07:01:32.673Z,70.96
2019-03-24T07:02:32.658Z,71.06
2019-03-24T07:03:32.849Z,70.34
2019-03-24T07:04:32.636Z,70.14
2019-03-24T07:05:32.681Z,70.24
2019-03-24T07:06:34.714Z,70.65
2019-03-24T07:07:32.653Z,69.70
2019-03-24T07:08:32.597Z,69.38
2019-03-24T07:09:32.581Z,69.49
2019-03-24T07:10:32.638Z,69.56
2019-03-24T07:11:32.567Z,68.22
2019-03-24T07:12:32.552Z,68.43
2019-03-24T07:13:32.537Z,68.63
2019-03-24T07:14:32.528Z,68.43
2019-03-24T07:15:32.520Z,68.63
2019-03-24T07:16:32.570Z,68.74
2019-03-24T07:17:32.499Z,68.32
2019-03-24T07:18:32.480Z,67.81
2019-03-24T07:19:32.473Z,67.36
2019-03-24T07:20:32.525Z,66.54
2019-03-24T07:21:32.462Z,67.30
2019-03-24T07:22:32.437Z,66.78
2019-03-24T07:23:32.431Z,66.78
2019-03-24T07:24:32.428Z,66.75
2019-03-24T07:25:32.409Z,67.16
2019-03-24T07:26:32.442Z,67.78
2019-03-24T07:27:32.387Z,66.96
2019-03-24T07:28:32.376Z,67.36
2019-03-24T07:29:32.361Z,67.57
2019-03-24T07:30:32.355Z,66.54
2019-03-24T07:31:32.353Z,67.06
2019-03-24T07:32:32.333Z,66.31
2019-03-24T07:33:32.321Z,65.17
2019-03-24T07:34:32.309Z,65.28
2019-03-24T07:35:32.301Z,65.38
2019-03-24T07:36:32.317Z,64.87
2019-03-24T07:37:32.275Z,65.28
2019-03-24T07:38:32.261Z,65.08
2019-03-24T07:39:32.248Z,64.56
2019-03-24T07:40:32.239Z,64.76
2019-03-24T07:41:32.231Z,64.46
2019-03-24T07:42:32.241Z,64.53
2019-03-24T07:43:32.206Z,64.73
2019-03-24T07:44:32.197Z,64.12
2019-03-24T07:45:32.187Z,63.50
2019-03-24T07:46:32.177Z,63.29
2019-03-24T07:47:32.214Z,63.78
2019-03-24T07:48:32.153Z,62.16
2019-03-24T07:49:32.145Z,62.14
2019-03-24T07:50:32.129Z,61.83
2019-03-24T07:51:32.123Z,62.04
2019-03-24T07:52:32.157Z,61.83
2019-03-24T07:53:32.095Z,61.62
2019-03-24T07:54:32.135Z,62.14
2019-03-24T07:55:32.078Z,61.90
2019-03-24T07:56:32.066Z,61.90
2019-03-24T07:57:32.097Z,61.16
2019-03-24T07:58:32.045Z,61.16
2019-03-24T07:59:32.031Z,59.80
2019-03-24T08:00:32.017Z,60.00
2019-03-24T08:01:32.005Z,59.80
2019-03-24T08:02:32.000Z,60.31
2019-03-24T08:03:32.052Z,59.43
2019-03-24T08:04:31.972Z,59.74
2019-03-24T08:05:31.966Z,58.79
2019-03-24T08:06:31.959Z,58.48
2019-03-24T08:07:31.939Z,57.97
2019-03-24T08:08:31.931Z,57.30
2019-03-24T08:09:31.933Z,56.66
2019-03-24T08:10:31.915Z,56.05
2019-03-24T08:11:31.944Z,54.90
2019-03-24T08:12:31.885Z,54.49
2019-03-24T08:13:31.938Z,54.49
2019-03-24T08:14:31.861Z,55.23
2019-03-24T08:15:31.850Z,55.13
2019-03-24T08:16:31.841Z,55.54
2019-03-24T08:17:31.838Z,56.05
2019-03-24T08:18:31.815Z,56.02
2019-03-24T08:19:31.817Z,55.64
2019-03-24T08:20:31.810Z,55.21
2019-03-24T08:21:31.785Z,54.77
2019-03-24T08:22:31.772Z,54.57
2019-03-24T08:23:31.766Z,53.62
2019-03-24T08:24:31.786Z,53.31
2019-03-24T08:25:31.738Z,53.83
2019-03-24T08:26:31.730Z,53.59
2019-03-24T08:27:31.726Z,53.49
2019-03-24T08:28:31.713Z,54.08
2019-03-24T08:29:31.696Z,53.03
2019-03-24T08:30:31.702Z,51.38
2019-03-24T08:31:31.678Z,50.01
2019-03-24T08:32:31.663Z,50.84
2019-03-24T08:33:31.656Z,50.95
2019-03-24T08:34:31.648Z,49.80
2019-03-24T08:35:31.633Z,50.13
2019-03-24T08:36:31.617Z,50.23
2019-03-24T08:37:31.612Z,50.11
2019-03-24T08:38:31.597Z,49.19
2019-03-24T08:39:31.616Z,49.83
2019-03-24T08:40:31.577Z,49.01
2019-03-24T08:41:31.567Z,49.24
2019-03-24T08:42:31.553Z,49.26
2019-03-24T08:43:31.538Z,49.44
2019-03-24T08:44:31.535Z,49.98
2019-03-24T08:45:31.532Z,49.77
2019-03-24T08:46:31.509Z,49.46
2019-03-24T08:47:31.501Z,50.18
2019-03-24T08:48:40.400Z,50.18
2019-03-24T08:49:32.481Z,49.57
2019-03-24T08:50:31.511Z,49.37
2019-03-24T08:51:31.450Z,48.91
2019-03-24T08:52:31.437Z,48.83
2019-03-24T08:53:31.438Z,49.52
2019-03-24T08:54:31.416Z,48.38
2019-03-24T08:55:31.409Z,47.44
2019-03-24T08:56:31.400Z,47.64
2019-03-24T08:57:32.489Z,46.09
2019-03-24T08:58:31.374Z,46.09
2019-03-24T08:59:31.360Z,45.89
2019-03-24T09:00:31.350Z,46.83
2019-03-24T09:01:31.395Z,46.93
2019-03-24T09:02:31.341Z,46.72
2019-03-24T09:03:32.661Z,46.75
2019-03-24T09:04:31.303Z,47.36
2019-03-24T09:05:33.611Z,47.66
2019-03-24T09:06:31.286Z,47.69
2019-03-24T09:07:31.280Z,48.60
2019-03-24T09:08:31.263Z,49.04
2019-03-24T09:09:31.255Z,48.73
2019-03-24T09:10:31.235Z,48.65
2019-03-24T09:11:31.728Z,48.75
2019-03-24T09:12:31.398Z,48.85
2019-03-24T09:13:31.207Z,49.18
2019-03-24T09:14:31.190Z,48.75
2019-03-24T09:15:31.178Z,48.22
2019-03-24T09:16:31.169Z,47.49
2019-03-24T09:17:31.220Z,46.75
2019-03-24T09:18:31.162Z,46.70
2019-03-24T09:19:31.172Z,45.06
2019-03-24T09:20:40.996Z,45.76
2019-03-24T09:21:32.114Z,45.67
2019-03-24T09:22:31.905Z,45.54
2019-03-24T09:23:31.090Z,45.64
2019-03-24T09:24:31.097Z,44.53
2019-03-24T09:25:31.115Z,44.63
2019-03-24T09:26:31.065Z,44.53
2019-03-24T09:27:31.056Z,45.84
2019-03-24T09:28:31.041Z,45.01
2019-03-24T09:29:31.045Z,44.73
2019-03-24T09:30:31.015Z,45.46
2019-03-24T09:31:31.003Z,44.53
2019-03-24T09:32:31.001Z,45.14
2019-03-24T09:33:30.982Z,44.10
2019-03-24T09:34:30.983Z,45.14
2019-03-24T09:35:30.961Z,44.30
2019-03-24T09:36:30.963Z,43.49
2019-03-24T09:37:30.945Z,43.91
2019-03-24T09:38:30.933Z,44.20
2019-03-24T09:39:30.927Z,43.51
2019-03-24T09:40:30.909Z,43.10
2019-03-24T09:41:30.901Z,42.90
2019-03-24T09:42:30.894Z,43.20
2019-03-24T09:43:30.875Z,43.30
2019-03-24T09:44:30.873Z,42.88
2019-03-24T09:45:30.853Z,43.29
2019-03-24T09:46:30.855Z,42.35
2019-03-24T09:47:30.827Z,42.43
2019-03-24T09:48:30.821Z,42.05
2019-03-24T09:49:30.817Z,42.45
2019-03-24T09:50:30.810Z,41.84
2019-03-24T09:51:30.781Z,41.42
2019-03-24T09:52:30.776Z,41.19
2019-03-24T09:53:30.766Z,40.87
2019-03-24T09:54:30.756Z,39.73
2019-03-24T09:55:30.880Z,40.02
2019-03-24T09:56:30.730Z,39.50
2019-03-24T09:57:30.718Z,39.17
2019-03-24T09:58:30.705Z,38.87
2019-03-24T09:59:30.711Z,38.45
2019-03-24T10:00:30.692Z,38.02
2019-03-24T10:01:37.734Z,37.62
2019-03-24T10:02:30.668Z,37.52
2019-03-24T10:03:30.652Z,37.82
2019-03-24T10:04:30.659Z,37.52
2019-03-24T10:05:30.636Z,37.54
2019-03-24T10:06:30.629Z,38.46
2019-03-24T10:07:30.609Z,37.23
2019-03-24T10:08:30.592Z,37.82
2019-03-24T10:09:30.584Z,37.42
2019-03-24T10:10:30.572Z,37.03
2019-03-24T10:11:30.572Z,36.83
2019-03-24T10:12:32.192Z,36.72
2019-03-24T10:13:30.544Z,37.57
2019-03-24T10:14:30.535Z,37.27
2019-03-24T10:15:30.521Z,37.25
2019-03-24T10:16:33.974Z,37.13
2019-03-24T10:17:30.501Z,38.04
2019-03-24T10:18:30.500Z,37.05
2019-03-24T10:19:30.473Z,36.72
2019-03-24T10:20:30.462Z,36.39
2019-03-24T10:21:30.449Z,36.10
2019-03-24T10:22:30.455Z,36.41
2019-03-24T10:23:30.427Z,35.90
2019-03-24T10:24:30.417Z,36.12
2019-03-24T10:25:30.410Z,35.01
2019-03-24T10:26:30.396Z,35.94
2019-03-24T10:27:30.415Z,35.43
2019-03-24T10:28:30.379Z,36.15
2019-03-24T10:29:30.941Z,36.78
2019-03-24T10:30:30.408Z,36.29
2019-03-24T10:31:30.346Z,36.39
2019-03-24T10:32:30.335Z,35.68
2019-03-24T10:33:30.421Z,36.21
2019-03-24T10:34:30.367Z,36.21
2019-03-24T10:35:30.300Z,36.53
2019-03-24T10:36:30.290Z,37.05
2019-03-24T10:37:30.281Z,37.13
2019-03-24T10:38:30.268Z,37.64
2019-03-24T10:39:31.983Z,36.39
2019-03-24T10:40:30.244Z,36.19
2019-03-24T10:41:30.229Z,35.58
2019-03-24T10:43:07.649Z,34.87
2019-03-24T10:43:30.205Z,34.75
2019-03-24T10:44:30.299Z,34.55
2019-03-24T10:45:30.230Z,33.52
2019-03-24T10:46:31.549Z,34.53
2019-03-24T10:47:30.165Z,34.94
2019-03-24T10:48:33.930Z,34.94
2019-03-24T10:49:30.144Z,33.80
2019-03-24T10:50:30.132Z,33.05
2019-03-24T10:51:30.116Z,32.53
2019-03-24T10:52:30.114Z,32.72
2019-03-24T10:53:30.099Z,31.07
2019-03-24T10:54:30.102Z,31.26
2019-03-24T10:55:30.076Z,31.33
2019-03-24T10:56:30.061Z,30.41
2019-03-24T10:57:30.097Z,30.71
2019-03-24T10:58:30.045Z,29.79
2019-03-24T10:59:30.609Z,30.30
2019-03-24T11:00:30.019Z,29.78
2019-03-24T11:01:30.010Z,29.90
2019-03-24T11:02:30.000Z,29.79
2019-03-24T11:03:29.987Z,30.60
2019-03-24T11:04:30.010Z,29.47
2019-03-24T11:05:29.968Z,29.27
2019-03-24T11:06:29.951Z,28.67
2019-03-24T11:07:29.946Z,28.55
2019-03-24T11:08:29.928Z,27.84
2019-03-24T11:09:29.916Z,27.62
2019-03-24T11:10:30.062Z,28.23
2019-03-24T11:11:29.900Z,27.51
2019-03-24T11:12:29.890Z,27.29
2019-03-24T11:13:29.872Z,26.60
2019-03-24T11:14:29.870Z,27.73
2019-03-24T11:15:29.851Z,27.61
2019-03-24T11:16:29.937Z,26.70
2019-03-24T11:17:29.834Z,26.60
2019-03-24T11:18:29.820Z,27.19
2019-03-24T11:19:35.597Z,26.67
2019-03-24T11:20:30.797Z,26.79
2019-03-24T11:21:29.796Z,27.54
2019-03-24T11:22:29.780Z,28.27
2019-03-24T11:23:29.765Z,29.29
2019-03-24T11:24:29.772Z,30.31
2019-03-24T11:25:30.493Z,30.02
2019-03-24T11:26:29.743Z,29.32
2019-03-24T11:27:29.724Z,30.12
2019-03-24T11:28:29.780Z,29.30
2019-03-24T11:29:29.705Z,29.29
2019-03-24T11:30:29.698Z,28.67
2019-03-24T11:31:29.844Z,28.05
2019-03-24T11:32:29.671Z,27.42
2019-03-24T11:33:29.814Z,26.50
2019-03-24T11:34:29.651Z,26.17
2019-03-24T11:35:29.637Z,25.56
2019-03-24T11:36:29.631Z,25.87
2019-03-24T11:37:29.725Z,25.68
2019-03-24T11:38:29.601Z,26.48
2019-03-24T11:39:29.592Z,26.40
2019-03-24T11:40:29.585Z,26.20
2019-03-24T11:41:29.578Z,26.20
2019-03-24T11:42:29.556Z,26.31
2019-03-24T11:43:29.574Z,26.93
2019-03-24T11:44:29.534Z,26.34
2019-03-24T11:45:29.528Z,25.25
2019-03-24T11:46:29.517Z,25.05
2019-03-24T11:47:29.515Z,24.63
2019-03-24T11:48:29.496Z,24.93
2019-03-24T11:49:29.516Z,25.46
2019-03-24T11:50:29.475Z,25.96
2019-03-24T11:51:29.460Z,25.35
2019-03-24T11:52:29.459Z,25.35
2019-03-24T11:53:29.437Z,25.35
2019-03-24T11:54:29.426Z,25.04
2019-03-24T11:55:29.441Z,25.35
2019-03-24T11:56:29.411Z,25.26
2019-03-24T11:57:29.400Z,24.38
2019-03-24T11:58:29.404Z,25.41
2019-03-24T11:59:29.376Z,25.82
2019-03-24T12:00:29.383Z,26.33
2019-03-24T12:01:37.907Z,25.61
2019-03-24T12:02:30.377Z,26.22
2019-03-24T12:03:29.334Z,26.43
2019-03-24T12:04:29.319Z,26.22
2019-03-24T12:05:29.311Z,27.44
2019-03-24T12:06:29.295Z,26.76
2019-03-24T12:07:29.285Z,27.06
2019-03-24T12:08:29.286Z,26.06
2019-03-24T12:09:29.263Z,25.94
2019-03-24T12:10:29.261Z,26.15
2019-03-24T12:11:29.238Z,26.67
2019-03-24T12:12:29.233Z,25.94
2019-03-24T12:13:29.226Z,26.45
2019-03-24T12:14:29.529Z,26.26
2019-03-24T12:15:29.199Z,27.08
2019-03-24T12:16:29.189Z,26.77
2019-03-24T12:17:29.180Z,25.96
2019-03-24T12:18:29.168Z,25.98
2019-03-24T12:19:29.186Z,25.88
2019-03-24T12:20:29.145Z,27.39
2019-03-24T12:21:29.131Z,27.59
2019-03-24T12:22:29.125Z,28.70
2019-03-24T12:23:29.112Z,28.81
2019-03-24T12:24:29.101Z,29.82
2019-03-24T12:25:29.102Z,28.88
2019-03-24T12:26:29.086Z,27.95
2019-03-24T12:27:29.066Z,28.96
2019-03-24T12:28:29.054Z,28.47
2019-03-24T12:29:29.050Z,28.58
2019-03-24T12:30:29.035Z,29.20
2019-03-24T12:31:29.023Z,28.69
2019-03-24T12:32:29.015Z,28.49
2019-03-24T12:33:29.006Z,28.17
2019-03-24T12:34:28.996Z,27.96
2019-03-24T12:35:28.977Z,28.28
2019-03-24T12:36:28.972Z,28.68
2019-03-24T12:37:28.961Z,28.58
2019-03-24T12:38:28.949Z,28.68
2019-03-24T12:39:28.970Z,28.98
2019-03-24T12:40:28.927Z,29.80
2019-03-24T12:41:28.910Z,29.71
2019-03-24T12:42:28.902Z,30.12
2019-03-24T12:43:28.890Z,30.74
2019-03-24T12:44:28.885Z,30.86
2019-03-24T12:45:28.885Z,30.16
2019-03-24T12:46:28.856Z,30.98
2019-03-24T12:47:28.844Z,30.46
2019-03-24T12:48:29.002Z,30.55
2019-03-24T12:49:28.828Z,30.86
2019-03-24T12:50:31.752Z,30.86
2019-03-24T12:51:28.807Z,31.67
2019-03-24T12:52:28.802Z,31.57
2019-03-24T12:53:28.785Z,31.67